TimeCST,TemperatureF,Dew PointF,Humidity,Sea Level PressureIn,VisibilityMPH,Wind Direction,Wind SpeedMPH,Gust SpeedMPH,PrecipitationIn,Events,Conditions,WindDirDegrees,DateUTC
12:53 AM,35.1,24.1,64,30.13,10.0,Calm,Calm,-,N/A,,Partly Cloudy,0,2013-01-08 06:53:00
1:53 AM,34.0,25.0,70,30.13,10.0,Calm,Calm,-,N/A,,Mostly Cloudy,0,2013-01-08 07:53:00
2:53 AM,39.9,26.1,58,30.13,10.0,Calm,Calm,-,N/A,,Overcast,0,2013-01-08 08:53:00
3:53 AM,37.0,27.0,67,30.12,10.0,ESE,3.5,-,N/A,,Overcast,120,2013-01-08 09:53:00
4:45 AM,41.0,28.4,61,30.10,10.0,Calm,Calm,-,N/A,,Overcast,0,2013-01-08 10:45:00
4:53 AM,41.0,28.0,60,30.10,10.0,Calm,Calm,-,N/A,,Overcast,0,2013-01-08 10:53:00
5:16 AM,39.2,28.4,65,30.09,10.0,Calm,Calm,-,N/A,,Scattered Clouds,0,2013-01-08 11:16:00
5:53 AM,37.9,30.0,73,30.10,10.0,Calm,Calm,-,N/A,,Mostly Cloudy,0,2013-01-08 11:53:00
6:27 AM,42.8,30.2,61,30.10,10.0,SE,3.5,-,N/A,,Overcast,140,2013-01-08 12:27:00
6:53 AM,42.1,30.9,65,30.12,10.0,Calm,Calm,-,N/A,,Overcast,0,2013-01-08 12:53:00
7:53 AM,42.1,30.9,65,30.13,10.0,Calm,Calm,-,N/A,,Overcast,0,2013-01-08 13:53:00
8:53 AM,45.0,33.1,63,30.13,10.0,Calm,Calm,-,N/A,,Overcast,0,2013-01-08 14:53:00
9:53 AM,48.9,34.0,56,30.15,10.0,SE,3.5,-,N/A,,Mostly Cloudy,140,2013-01-08 15:53:00
10:53 AM,53.1,34.0,48,30.11,10.0,ESE,8.1,-,N/A,,Mostly Cloudy,120,2013-01-08 16:53:00
11:53 AM,55.0,35.1,47,30.08,10.0,South,5.8,-,N/A,,Overcast,180,2013-01-08 17:53:00
12:53 PM,53.1,36.0,52,30.08,10.0,SSW,10.4,-,N/A,,Overcast,200,2013-01-08 18:53:00
1:01 PM,51.8,35.6,54,30.08,10.0,SSW,10.4,-,N/A,,Overcast,210,2013-01-08 19:01:00
1:53 PM,48.9,42.1,77,30.06,10.0,Variable,4.6,-,0.00,,Overcast,0,2013-01-08 19:53:00
2:01 PM,48.2,42.8,82,30.06,10.0,WSW,4.6,-,N/A,,Overcast,240,2013-01-08 20:01:00
2:51 PM,48.2,44.6,87,30.05,2.5,Calm,Calm,-,0.04,Rain,Light Rain,0,2013-01-08 20:51:00
2:53 PM,48.2,44.6,87,30.05,3.0,Calm,Calm,-,N/A,Rain,Light Rain,0,2013-01-08 20:53:00
3:20 PM,48.2,44.6,87,30.04,4.0,NNE,4.6,-,0.01,Rain,Light Rain,20,2013-01-08 21:20:00
3:53 PM,48.9,45.0,86,30.06,6.0,NNW,3.5,-,0.03,Rain,Light Rain,340,2013-01-08 21:53:00
4:03 PM,48.2,46.4,93,30.03,1.8,East,6.9,-,0.05,Rain,Rain,90,2013-01-08 22:03:00
4:15 PM,48.2,46.4,93,30.05,2.0,North,3.5,-,0.10,Rain,Rain,360,2013-01-08 22:15:00
4:22 PM,48.2,46.4,93,30.04,1.8,North,3.5,-,0.13,Rain,Rain,360,2013-01-08 22:22:00
4:29 PM,48.2,46.4,93,30.03,1.2,East,8.1,-,0.16,Rain,Rain,100,2013-01-08 22:29:00
4:43 PM,48.2,46.4,93,30.04,1.8,Variable,3.5,-,0.21,Rain,Rain,0,2013-01-08 22:43:00
4:53 PM,48.0,46.0,93,30.05,1.8,ENE,5.8,-,0.24,Rain,Rain,60,2013-01-08 22:53:00
4:59 PM,48.2,46.4,93,30.05,3.0,North,4.6,-,0.00,Rain,Light Rain,10,2013-01-08 22:59:00
5:07 PM,48.2,46.4,93,30.06,6.0,NNW,5.8,-,0.00,,Mostly Cloudy,340,2013-01-08 23:07:00
5:15 PM,48.2,46.4,93,30.06,6.0,ENE,4.6,-,0.01,Rain,Light Rain,70,2013-01-08 23:15:00
5:22 PM,48.2,46.4,93,30.06,5.0,Calm,Calm,-,0.01,Rain,Light Rain,0,2013-01-08 23:22:00
5:37 PM,48.2,46.4,93,30.07,2.5,NE,3.5,-,0.05,Rain,Heavy Rain,50,2013-01-08 23:37:00
5:48 PM,48.2,46.4,93,30.07,3.0,ENE,3.5,-,0.06,Rain,Light Rain,60,2013-01-08 23:48:00
5:49 PM,48.0,46.0,93,30.07,3.0,ENE,3.5,-,0.06,Rain,Light Rain,60,2013-01-08 23:49:00
5:56 PM,48.2,46.4,93,30.08,4.0,NE,3.5,-,0.00,Rain,Light Rain,40,2013-01-08 23:56:00
6:08 PM,48.2,46.4,93,30.09,5.0,NNW,5.8,-,0.01,Rain,Light Rain,330,2013-01-09 00:08:00
6:17 PM,48.2,46.4,93,30.10,3.0,NW,9.2,-,0.02,Rain,Light Rain,320,2013-01-09 00:17:00
6:38 PM,48.2,46.4,93,30.10,2.5,NNW,6.9,-,0.04,Rain,Light Rain,340,2013-01-09 00:38:00
6:53 PM,46.9,46.0,97,30.10,2.0,NE,4.6,-,0.07,Rain,Rain,50,2013-01-09 00:53:00
7:12 PM,48.2,46.4,93,30.10,3.0,NE,4.6,-,0.04,Rain,Light Rain,40,2013-01-09 01:12:00
7:18 PM,46.4,46.4,100,30.09,3.0,ENE,4.6,-,0.06,Rain,Rain,60,2013-01-09 01:18:00
7:25 PM,46.4,46.4,100,30.09,2.5,NE,4.6,-,0.07,Rain,Rain,50,2013-01-09 01:25:00
7:39 PM,46.4,44.6,93,30.11,2.5,North,3.5,-,0.11,Rain,Rain,360,2013-01-09 01:39:00
7:48 PM,46.4,44.6,93,30.11,3.0,NNE,4.6,-,0.12,Rain,Light Rain,30,2013-01-09 01:48:00
7:53 PM,46.9,45.0,93,30.11,3.0,NNE,4.6,-,0.13,Rain,Light Rain,20,2013-01-09 01:53:00
8:53 PM,46.9,45.0,93,30.11,5.0,North,4.6,-,0.02,Rain,Light Rain,10,2013-01-09 02:53:00
9:53 PM,46.0,45.0,96,30.12,3.0,NE,5.8,-,N/A,,Overcast,40,2013-01-09 03:53:00
10:23 PM,46.4,44.6,93,30.13,2.5,NE,4.6,-,0.01,Rain,Light Rain,40,2013-01-09 04:23:00
10:53 PM,46.4,44.6,93,30.15,2.5,NE,6.9,-,N/A,Rain,Light Rain,40,2013-01-09 04:53:00
11:00 PM,46.4,44.6,93,30.15,3.0,NE,5.8,-,0.00,Rain,Light Rain,40,2013-01-09 05:00:00
11:53 PM,46.9,45.0,93,30.15,3.0,NE,5.8,-,0.00,,Overcast,40,2013-01-09 05:53:00